Time;durP1;ratioP1;P1;durP2;ratioP2;P2;SDS_P1;SDS_P2;PMS_P1;PMS_P2;Temp;Humidity;BMP_temperature;BMP_pressure;BME280_temperature;BME280_humidity;BME280_pressure;Samples;Min_cycle;Max_cycle;Signal;HPM_P1;HPM_P2
2022/05/19 00:00:12;;;;;;;1.88;1.77;;;19.60;40.40;;;;;;6247022;23;20178;-86
2022/05/19 00:02:38;;;;;;;2.17;1.80;;;19.60;40.30;;;;;;6195254;23;20157;-86
2022/05/19 00:05:04;;;;;;;2.05;1.88;;;19.50;40.30;;;;;;6220270;23;20449;-86
2022/05/19 00:07:29;;;;;;;3.15;2.30;;;19.50;40.30;;;;;;6195348;23;20137;-86
2022/05/19 00:09:55;;;;;;;1.80;1.70;;;19.50;40.40;;;;;;6220098;23;20156;-86
2022/05/19 00:12:22;;;;;;;2.28;1.90;;;19.50;40.40;;;;;;6220108;23;20129;-87
2022/05/19 00:14:48;;;;;;;2.15;1.75;;;19.60;40.50;;;;;;6220587;23;20168;-86
2022/05/19 00:17:14;;;;;;;1.88;1.65;;;19.50;40.50;;;;;;6170171;23;20145;-86
2022/05/19 00:19:39;;;;;;;2.75;1.90;;;19.50;40.50;;;;;;6220025;23;20129;-86
2022/05/19 00:22:05;;;;;;;2.33;1.85;;;19.50;40.50;;;;;;6220071;23;20141;-86
2022/05/19 00:24:31;;;;;;;2.47;2.17;;;19.50;40.50;;;;;;6194768;23;20221;-86
2022/05/19 00:26:57;;;;;;;1.95;1.83;;;19.50;40.60;;;;;;6220311;23;20153;-86
2022/05/19 00:29:22;;;;;;;2.00;1.80;;;19.50;40.60;;;;;;6195233;23;20565;-86
2022/05/19 00:31:48;;;;;;;2.85;1.67;;;19.50;40.60;;;;;;6246961;23;20222;-86
2022/05/19 00:34:14;;;;;;;2.13;1.90;;;19.60;40.80;;;;;;6194922;23;20256;-86
2022/05/19 00:36:40;;;;;;;2.72;1.85;;;19.50;40.70;;;;;;6169741;23;20197;-86
2022/05/19 00:39:06;;;;;;;2.00;1.80;;;19.50;40.60;;;;;;6169712;23;20149;-87
2022/05/19 00:41:32;;;;;;;2.35;1.90;;;19.50;40.60;;;;;;6219962;23;20501;-86
2022/05/19 00:44:00;;;;;;;2.78;1.95;;;19.50;40.60;;;;;;6220036;23;20177;-87
2022/05/19 00:46:31;;;;;;;2.15;1.95;;;19.50;40.60;;;;;;6170610;23;20150;-86
2022/05/19 00:49:01;;;;;;;3.22;2.13;;;19.50;40.70;;;;;;6170375;23;20192;-86
2022/05/19 00:51:39;;;;;;;2.08;1.67;;;19.50;40.80;;;;;;6170225;23;20451;-86
2022/05/19 00:54:06;;;;;;;1.88;1.77;;;19.50;40.70;;;;;;6195385;23;20251;-86
2022/05/19 00:56:52;;;;;;;2.75;2.20;;;19.50;40.70;;;;;;6170130;23;20146;-86
2022/05/19 00:59:25;;;;;;;2.03;1.90;;;19.50;40.70;;;;;;6223848;23;20126;-86
2022/05/19 01:01:51;;;;;;;2.35;1.98;;;19.50;40.80;;;;;;6171322;23;20141;-87
2022/05/19 01:04:23;;;;;;;2.65;2.35;;;19.50;40.70;;;;;;6195143;23;20568;-86
2022/05/19 01:06:50;;;;;;;3.00;2.30;;;19.40;40.60;;;;;;6220544;23;20137;-86
2022/05/19 01:09:15;;;;;;;2.30;2.10;;;19.40;40.70;;;;;;6194535;23;20207;-86
2022/05/19 01:11:42;;;;;;;2.05;1.85;;;19.40;40.70;;;;;;6194672;23;20520;-86
2022/05/19 01:14:08;;;;;;;2.90;2.45;;;19.40;41.30;;;;;;6170634;23;20252;-86
2022/05/19 01:16:34;;;;;;;2.25;2.05;;;19.40;40.60;;;;;;6194469;23;20140;-86
2022/05/19 01:18:59;;;;;;;2.28;1.90;;;19.40;40.70;;;;;;6194552;23;20138;-86
2022/05/19 01:21:27;;;;;;;2.10;1.90;;;19.40;40.70;;;;;;6169697;23;20134;-86
2022/05/19 01:24:12;;;;;;;2.10;1.90;;;19.40;40.80;;;;;;6194762;23;20145;-86
2022/05/19 01:26:48;;;;;;;1.83;1.73;;;19.40;40.90;;;;;;6197939;23;20132;-86
2022/05/19 01:29:15;;;;;;;2.30;1.65;;;19.40;40.90;;;;;;6169891;23;20549;-86
2022/05/19 01:31:47;;;;;;;1.77;1.67;;;19.40;40.90;;;;;;6169784;23;20137;-86
2022/05/19 01:34:13;;;;;;;2.40;1.98;;;19.40;40.90;;;;;;6169961;23;20173;-86
2022/05/19 01:36:39;;;;;;;2.17;1.90;;;19.40;40.80;;;;;;6214304;23;20228;-86
2022/05/19 01:39:07;;;;;;;2.60;2.20;;;19.40;40.90;;;;;;6214915;23;20134;-86
2022/05/19 01:41:44;;;;;;;2.05;1.85;;;19.40;40.90;;;;;;6189788;23;20217;-86
2022/05/19 01:44:25;;;;;;;2.20;2.00;;;19.40;40.90;;;;;;6190829;23;20146;-87
2022/05/19 01:46:59;;;;;;;3.33;1.90;;;19.40;40.90;;;;;;6191006;23;20161;-86
2022/05/19 01:49:29;;;;;;;2.17;1.90;;;19.40;40.90;;;;;;6190911;23;20133;-86
2022/05/19 01:52:16;;;;;;;1.98;1.77;;;19.40;41.00;;;;;;6191973;23;20130;-86
2022/05/19 01:54:49;;;;;;;2.25;2.05;;;19.40;41.00;;;;;;6174634;23;20180;-86
2022/05/19 01:57:19;;;;;;;3.60;2.08;;;19.40;41.10;;;;;;6192914;23;20204;-86
2022/05/19 01:59:51;;;;;;;2.13;1.90;;;19.30;41.70;;;;;;6167043;23;20138;-86
2022/05/19 02:02:31;;;;;;;2.00;1.85;;;19.30;41.00;;;;;;6191969;23;20130;-86
2022/05/19 02:05:16;;;;;;;2.25;1.88;;;19.30;41.00;;;;;;6169043;23;20201;-86
2022/05/19 02:07:42;;;;;;;2.22;2.00;;;19.40;41.20;;;;;;6194211;23;20167;-86
2022/05/19 02:10:14;;;;;;;1.83;1.70;;;19.30;41.00;;;;;;6191586;23;20131;-86
2022/05/19 02:12:40;;;;;;;1.70;1.60;;;19.40;41.90;;;;;;6191943;23;20229;-86
2022/05/19 02:15:08;;;;;;;2.50;2.30;;;19.30;41.00;;;;;;6217940;23;20166;-86
2022/05/19 02:17:33;;;;;;;2.10;1.90;;;19.40;41.20;;;;;;6166395;23;20146;-86
2022/05/19 02:20:04;;;;;;;2.13;1.92;;;19.30;41.20;;;;;;6216214;23;20181;-86
2022/05/19 02:22:33;;;;;;;2.63;2.00;;;19.30;41.20;;;;;;6192208;23;20130;-87
2022/05/19 02:25:04;;;;;;;2.10;1.90;;;19.30;41.20;;;;;;6166479;23;20507;-86
2022/05/19 02:27:59;;;;;;;2.42;1.88;;;19.40;41.20;;;;;;6192419;23;20165;-86
2022/05/19 02:30:28;;;;;;;3.22;1.73;;;19.30;41.10;;;;;;6194908;23;20154;-86
2022/05/19 02:32:54;;;;;;;2.60;2.17;;;19.40;41.30;;;;;;6216189;23;20166;-86
2022/05/19 02:35:19;;;;;;;1.75;1.65;;;19.40;41.20;;;;;;6194790;23;20138;-86
2022/05/19 02:37:45;;;;;;;1.98;1.70;;;19.30;41.30;;;;;;6195986;23;20129;-86
2022/05/19 02:40:14;;;;;;;2.40;2.10;;;19.40;41.40;;;;;;6171163;23;20172;-86
2022/05/19 02:42:39;;;;;;;2.03;1.90;;;19.40;41.30;;;;;;6221146;23;20144;-86
2022/05/19 02:45:05;;;;;;;2.08;1.88;;;19.30;41.30;;;;;;6196439;23;20208;-86
2022/05/19 02:47:31;;;;;;;2.22;2.03;;;19.30;41.30;;;;;;6171221;23;20145;-86
2022/05/19 02:49:57;;;;;;;2.83;1.98;;;19.30;41.30;;;;;;6221195;23;20468;-86
2022/05/19 02:52:22;;;;;;;1.80;1.70;;;19.30;41.40;;;;;;6247873;23;20141;-86
2022/05/19 02:54:48;;;;;;;2.05;1.85;;;19.30;41.30;;;;;;6220853;23;20162;-86
2022/05/19 02:57:14;;;;;;;1.70;1.60;;;19.40;41.50;;;;;;6196552;23;20173;-86
2022/05/19 02:59:39;;;;;;;2.20;1.90;;;19.30;41.30;;;;;;6195934;23;20504;-86
2022/05/19 03:02:06;;;;;;;1.67;1.58;;;19.30;41.40;;;;;;6195734;23;20136;-86
2022/05/19 03:04:32;;;;;;;2.00;1.85;;;19.30;41.40;;;;;;6195962;23;20472;-86
2022/05/19 03:06:58;;;;;;;2.15;1.98;;;19.30;41.40;;;;;;6221271;23;20438;-86
2022/05/19 03:09:25;;;;;;;1.90;1.60;;;19.30;41.40;;;;;;6220924;23;20130;-86
2022/05/19 03:11:50;;;;;;;2.03;1.83;;;19.20;41.30;;;;;;6196099;23;20126;-87
2022/05/19 03:14:19;;;;;;;1.98;1.77;;;19.30;41.40;;;;;;6247239;23;20219;-86
2022/05/19 03:16:44;;;;;;;1.88;1.73;;;19.30;41.40;;;;;;6221369;23;20179;-86
2022/05/19 03:19:10;;;;;;;2.08;1.88;;;19.30;41.40;;;;;;6195605;23;20141;-87
2022/05/19 03:21:36;;;;;;;2.30;2.00;;;19.30;41.40;;;;;;6195886;23;20133;-86
2022/05/19 03:24:02;;;;;;;2.17;1.90;;;19.30;41.50;;;;;;6195857;23;20137;-86
2022/05/19 03:26:28;;;;;;;1.85;1.67;;;19.30;41.40;;;;;;6170955;23;20149;-86
2022/05/19 03:28:54;;;;;;;2.00;1.85;;;19.30;41.40;;;;;;6195798;23;20158;-86
2022/05/19 03:31:19;;;;;;;2.47;1.92;;;19.30;41.40;;;;;;6195799;23;20152;-86
2022/05/19 03:33:45;;;;;;;2.42;1.80;;;19.30;41.50;;;;;;6220562;23;20666;-86
2022/05/19 03:36:10;;;;;;;2.70;2.00;;;19.30;42.30;;;;;;6195984;23;20192;-86
2022/05/19 03:38:36;;;;;;;2.30;1.80;;;19.30;41.50;;;;;;6195794;23;20158;-86
2022/05/19 03:41:02;;;;;;;2.85;2.05;;;19.30;41.60;;;;;;6195994;23;20138;-87
2022/05/19 03:43:28;;;;;;;2.42;2.00;;;19.30;41.50;;;;;;6197313;23;20162;-87
2022/05/19 03:45:54;;;;;;;2.92;1.90;;;19.30;41.50;;;;;;6220909;23;20137;-87
2022/05/19 03:48:19;;;;;;;2.08;1.88;;;19.30;41.50;;;;;;6221009;23;20144;-86
2022/05/19 03:50:46;;;;;;;1.85;1.65;;;19.30;41.50;;;;;;6220870;23;20156;-87
2022/05/19 03:53:12;;;;;;;2.88;1.98;;;19.30;41.50;;;;;;6220665;23;20215;-86
2022/05/19 03:55:39;;;;;;;2.38;2.08;;;19.40;41.60;;;;;;6195816;23;20157;-87
2022/05/19 03:58:05;;;;;;;2.40;1.70;;;19.30;41.50;;;;;;6195592;23;20559;-86
2022/05/19 04:00:31;;;;;;;2.20;2.00;;;19.40;41.50;;;;;;6195789;23;20168;-87
2022/05/19 04:02:58;;;;;;;2.67;1.80;;;19.40;41.50;;;;;;6221445;23;20188;-86
2022/05/19 04:05:26;;;;;;;1.98;1.77;;;19.40;41.40;;;;;;6195739;23;20141;-87
2022/05/19 04:07:52;;;;;;;1.90;1.80;;;19.40;41.40;;;;;;6195712;23;20137;-86
2022/05/19 04:10:18;;;;;;;1.90;1.80;;;19.40;41.40;;;;;;6171742;23;20171;-87
2022/05/19 04:12:44;;;;;;;1.88;1.63;;;19.50;41.50;;;;;;6247219;23;20134;-87
2022/05/19 04:15:10;;;;;;;1.85;1.67;;;19.40;41.30;;;;;;6220377;23;20129;-86
2022/05/19 04:17:36;;;;;;;1.80;1.70;;;19.50;41.40;;;;;;6220768;23;20631;-87
2022/05/19 04:20:04;;;;;;;1.60;1.50;;;19.40;41.30;;;;;;6170440;23;20145;-87
2022/05/19 04:22:30;;;;;;;1.70;1.60;;;19.50;41.30;;;;;;6220396;23;20134;-87
2022/05/19 04:24:56;;;;;;;1.77;1.67;;;19.50;41.40;;;;;;6195172;23;20136;-87
2022/05/19 04:27:22;;;;;;;1.95;1.80;;;19.50;41.30;;;;;;6171290;23;20138;-87
2022/05/19 04:29:48;;;;;;;2.10;1.83;;;19.50;41.30;;;;;;6220221;23;20134;-86
2022/05/19 04:32:16;;;;;;;2.08;1.90;;;19.50;41.30;;;;;;6195163;23;20152;-87
2022/05/19 04:34:42;;;;;;;2.05;1.85;;;19.50;41.30;;;;;;6195391;23;20169;-88
2022/05/19 04:37:08;;;;;;;2.55;2.03;;;19.50;41.20;;;;;;6195024;23;20243;-88
2022/05/19 04:39:33;;;;;;;2.30;2.10;;;19.50;41.20;;;;;;6170298;23;20153;-88
2022/05/19 04:41:59;;;;;;;2.08;1.88;;;19.60;41.20;;;;;;6220091;23;20519;-88
2022/05/19 04:44:24;;;;;;;1.75;1.65;;;19.60;41.10;;;;;;6194977;23;20137;-88
2022/05/19 04:46:50;;;;;;;1.70;1.60;;;19.60;41.20;;;;;;6195042;23;20180;-89
2022/05/19 04:49:16;;;;;;;1.70;1.60;;;19.60;41.20;;;;;;6195755;23;20561;-88
2022/05/19 04:51:41;;;;;;;2.60;1.92;;;19.60;41.40;;;;;;6219910;23;20129;-87
2022/05/19 04:54:07;;;;;;;2.00;1.80;;;19.60;41.40;;;;;;6194700;23;20252;-88
2022/05/19 04:56:36;;;;;;;1.95;1.75;;;19.60;41.50;;;;;;6220344;23;20197;-88
2022/05/19 04:59:04;;;;;;;2.22;2.03;;;19.60;41.40;;;;;;6247086;23;20125;-88
2022/05/19 05:01:30;;;;;;;2.42;2.03;;;19.60;41.20;;;;;;6170777;23;20242;-88
2022/05/19 05:03:55;;;;;;;2.45;1.90;;;19.70;41.40;;;;;;6194695;23;20153;-88
2022/05/19 05:06:21;;;;;;;2.33;1.77;;;19.70;41.30;;;;;;6220131;23;20177;-88
2022/05/19 05:08:47;;;;;;;3.45;1.98;;;19.70;41.30;;;;;;6194735;23;20188;-88
2022/05/19 05:11:14;;;;;;;1.77;1.60;;;19.70;41.40;;;;;;6219699;23;20125;-88
2022/05/19 05:13:41;;;;;;;2.38;2.13;;;19.70;41.50;;;;;;6194987;23;20177;-88
2022/05/19 05:16:06;;;;;;;1.83;1.70;;;19.70;41.40;;;;;;6219755;23;20126;-88
2022/05/19 05:18:32;;;;;;;2.20;2.00;;;19.70;41.40;;;;;;6195067;23;20129;-88
2022/05/19 05:21:02;;;;;;;2.13;1.92;;;19.70;41.30;;;;;;6194786;23;20133;-88
2022/05/19 05:23:28;;;;;;;2.00;1.80;;;19.70;41.40;;;;;;6170819;23;20145;-88
2022/05/19 05:25:53;;;;;;;1.80;1.70;;;19.60;41.50;;;;;;6220306;23;20220;-88
2022/05/19 05:28:19;;;;;;;1.98;1.77;;;19.70;41.50;;;;;;6194682;23;20130;-88
2022/05/19 05:30:45;;;;;;;1.80;1.70;;;19.80;41.50;;;;;;6219736;23;20228;-88
2022/05/19 05:33:10;;;;;;;2.00;1.80;;;19.80;41.50;;;;;;6246562;23;20252;-87
2022/05/19 05:35:36;;;;;;;1.75;1.65;;;19.80;41.40;;;;;;6189061;23;20193;-87
2022/05/19 05:38:02;;;;;;;2.25;1.70;;;19.80;41.50;;;;;;6189356;23;20152;-87
2022/05/19 05:40:27;;;;;;;1.92;1.83;;;19.80;41.50;;;;;;6189495;23;20573;-87
2022/05/19 05:42:53;;;;;;;1.90;1.70;;;19.80;41.50;;;;;;6189646;23;20207;-87
2022/05/19 05:45:19;;;;;;;2.30;2.10;;;19.80;41.40;;;;;;6214531;23;20138;-87
2022/05/19 05:47:45;;;;;;;1.77;1.67;;;19.70;41.50;;;;;;6164411;23;20146;-87
2022/05/19 05:50:11;;;;;;;1.92;1.73;;;19.70;41.80;;;;;;6189522;23;20565;-87
2022/05/19 05:52:37;;;;;;;1.80;1.70;;;19.80;42.20;;;;;;6164907;23;20153;-87
2022/05/19 05:55:03;;;;;;;1.80;1.65;;;19.80;42.30;;;;;;6214918;23;20194;-87
2022/05/19 05:57:28;;;;;;;2.60;1.60;;;19.80;42.00;;;;;;6164854;23;20237;-88
2022/05/19 05:59:55;;;;;;;1.60;1.50;;;19.80;42.20;;;;;;6215772;23;20131;-88
2022/05/19 06:02:22;;;;;;;1.83;1.73;;;19.80;42.10;;;;;;6165034;23;20147;-87
2022/05/19 06:04:47;;;;;;;2.20;1.80;;;19.90;42.70;;;;;;6189436;23;20578;-87
2022/05/19 06:07:13;;;;;;;2.08;1.88;;;19.90;41.90;;;;;;6215637;23;20131;-88
2022/05/19 06:09:39;;;;;;;2.70;1.60;;;19.90;41.90;;;;;;6215858;23;20303;-87
2022/05/19 06:12:05;;;;;;;1.67;1.58;;;19.90;42.10;;;;;;6164453;23;20220;-87
2022/05/19 06:14:31;;;;;;;1.80;1.70;;;19.80;42.00;;;;;;6214736;23;20166;-87
2022/05/19 06:16:57;;;;;;;1.80;1.70;;;19.80;42.40;;;;;;6189871;23;20138;-87
2022/05/19 06:19:22;;;;;;;1.77;1.67;;;19.80;42.60;;;;;;6214859;23;20168;-89
2022/05/19 06:21:48;;;;;;;1.67;1.58;;;19.80;42.20;;;;;;6189702;23;20126;-89
2022/05/19 06:24:14;;;;;;;1.85;1.75;;;19.70;41.80;;;;;;6215103;23;20138;-87
2022/05/19 06:26:39;;;;;;;3.25;2.00;;;19.60;42.20;;;;;;6214040;23;20168;-87
2022/05/19 06:29:06;;;;;;;2.88;1.67;;;19.60;42.50;;;;;;6189226;23;20141;-88
2022/05/19 06:31:32;;;;;;;3.47;1.77;;;19.60;43.20;;;;;;6164485;23;20147;-88
2022/05/19 06:33:59;;;;;;;1.90;1.70;;;19.60;42.20;;;;;;6188926;23;20220;-88
2022/05/19 06:36:24;;;;;;;2.00;1.80;;;19.60;42.60;;;;;;6190322;23;20193;-88
2022/05/19 06:38:59;;;;;;;2.00;1.65;;;19.60;42.60;;;;;;6167531;23;20208;-90
2022/05/19 06:44:02;;;;;;;2.17;1.75;;;19.60;42.40;;;;;;6155369;23;20151;-87
2022/05/19 06:46:29;;;;;;;2.50;2.10;;;19.60;42.70;;;;;;6130770;23;20522;-88
2022/05/19 06:48:54;;;;;;;1.90;1.80;;;19.60;42.60;;;;;;6072219;23;20237;-88
2022/05/19 06:51:21;;;;;;;2.65;1.67;;;19.50;42.40;;;;;;6073107;23;20157;-89
2022/05/19 06:53:47;;;;;;;1.90;1.70;;;19.60;42.60;;;;;;6096093;23;20192;-90
2022/05/19 06:56:13;;;;;;;1.50;1.40;;;19.60;42.80;;;;;;6096330;23;20137;-88
2022/05/19 06:58:39;;;;;;;1.95;1.70;;;19.60;42.70;;;;;;6072365;23;20244;-89
2022/05/19 07:01:06;;;;;;;1.98;1.77;;;19.60;43.00;;;;;;6096113;23;20191;-89
2022/05/19 07:03:31;;;;;;;1.75;1.65;;;19.60;42.80;;;;;;6096150;23;20160;-88
2022/05/19 07:06:03;;;;;;;2.17;1.73;;;19.70;42.70;;;;;;6125711;23;20450;-88
2022/05/19 07:08:28;;;;;;;1.90;1.73;;;19.70;42.90;;;;;;6106292;23;20151;-88
2022/05/19 07:10:55;;;;;;;2.03;1.83;;;19.70;42.70;;;;;;6067510;23;20160;-89
2022/05/19 07:13:21;;;;;;;1.75;1.65;;;19.70;42.50;;;;;;6067809;23;20181;-87
2022/05/19 07:15:47;;;;;;;1.42;1.33;;;19.70;42.60;;;;;;6019680;23;20157;-89
2022/05/19 07:18:15;;;;;;;2.17;1.60;;;19.70;42.60;;;;;;6019153;23;20609;-87
2022/05/19 07:20:47;;;;;;;1.98;1.85;;;19.70;42.70;;;;;;6092904;23;20162;-87
2022/05/19 07:23:28;;;;;;;2.30;2.10;;;19.80;42.60;;;;;;6130818;23;20151;-89
2022/05/19 07:25:58;;;;;;;1.73;1.63;;;19.80;42.60;;;;;;6131716;23;20242;-90
2022/05/19 07:28:26;;;;;;;2.17;1.88;;;19.80;42.60;;;;;;6130791;23;20158;-89
2022/05/19 07:30:52;;;;;;;1.50;1.40;;;19.80;42.50;;;;;;6125046;23;20188;-89
2022/05/19 07:33:20;;;;;;;1.60;1.50;;;19.80;42.70;;;;;;6076943;23;20256;-90
2022/05/19 07:35:46;;;;;;;2.15;1.83;;;19.80;42.60;;;;;;6052517;23;20195;-90
2022/05/19 07:38:15;;;;;;;1.85;1.65;;;19.90;42.70;;;;;;6072162;23;20172;-90
2022/05/19 07:40:41;;;;;;;1.83;1.50;;;19.90;42.60;;;;;;6035460;23;20205;-89
2022/05/19 07:45:52;;;;;;;1.70;1.48;;;19.80;42.70;;;;;;5991558;23;20158;-89
2022/05/19 07:48:18;;;;;;;2.00;1.80;;;19.90;42.80;;;;;;5987848;23;20155;-89
2022/05/19 07:50:43;;;;;;;2.55;1.80;;;19.80;42.60;;;;;;5986856;23;20154;-89
2022/05/19 07:53:10;;;;;;;1.73;1.60;;;19.80;42.70;;;;;;5986727;23;20531;-89
2022/05/19 07:55:37;;;;;;;2.78;1.65;;;19.80;43.00;;;;;;6010542;23;20618;-89
2022/05/19 07:58:03;;;;;;;1.83;1.40;;;19.90;42.80;;;;;;6010812;23;20158;-88
2022/05/19 08:00:29;;;;;;;1.70;1.60;;;19.90;42.70;;;;;;5987275;23;20169;-89
2022/05/19 08:02:55;;;;;;;2.53;1.80;;;19.90;42.80;;;;;;6039875;23;20533;-89
2022/05/19 08:05:21;;;;;;;2.00;1.80;;;19.90;42.70;;;;;;6043461;23;20212;-89
2022/05/19 08:07:46;;;;;;;1.70;1.60;;;19.90;42.70;;;;;;6043064;23;20173;-88
2022/05/19 08:15:35;;;;;;;1.73;1.63;;;19.90;42.60;;;;;;6132127;23;20132;-88
2022/05/19 08:18:02;;;;;;;1.95;1.70;;;19.90;42.60;;;;;;6167719;23;20149;-88
2022/05/19 08:20:28;;;;;;;2.20;1.50;;;19.90;42.80;;;;;;6165932;23;20608;-89
2022/05/19 08:22:54;;;;;;;1.77;1.67;;;19.90;42.70;;;;;;6166180;23;20138;-88
2022/05/19 08:25:24;;;;;;;1.60;1.50;;;19.90;42.80;;;;;;6167137;23;20150;-88
2022/05/19 08:27:50;;;;;;;1.58;1.48;;;19.90;42.80;;;;;;6192874;23;20149;-88
2022/05/19 08:30:16;;;;;;;2.65;1.50;;;19.90;42.90;;;;;;6191887;23;20645;-87
2022/05/19 08:32:42;;;;;;;3.15;1.67;;;20.00;42.80;;;;;;6217529;23;20145;-87
2022/05/19 08:35:08;;;;;;;3.80;1.50;;;20.00;42.90;;;;;;6191233;23;20142;-88
2022/05/19 08:37:33;;;;;;;1.50;1.40;;;20.00;42.80;;;;;;6195335;23;20134;-87
2022/05/19 08:39:59;;;;;;;1.77;1.65;;;20.00;42.90;;;;;;6170075;23;20155;-87
2022/05/19 08:42:26;;;;;;;1.40;1.30;;;20.00;42.80;;;;;;6194614;23;20138;-87
2022/05/19 08:44:53;;;;;;;3.10;1.70;;;20.00;42.90;;;;;;6171011;23;20153;-87
2022/05/19 08:47:23;;;;;;;3.65;1.83;;;20.10;42.80;;;;;;6170068;23;20196;-86
2022/05/19 08:50:03;;;;;;;3.10;1.83;;;20.10;42.80;;;;;;6169625;23;20149;-86
2022/05/19 08:52:46;;;;;;;1.50;1.40;;;20.10;43.10;;;;;;6193726;23;20133;-87
2022/05/19 08:55:14;;;;;;;1.70;1.60;;;20.10;42.80;;;;;;6195191;23;20172;-87
2022/05/19 08:57:51;;;;;;;1.98;1.77;;;20.10;42.90;;;;;;6195545;23;20133;-86
2022/05/19 09:00:25;;;;;;;1.80;1.70;;;20.10;42.90;;;;;;6174234;23;20153;-87
2022/05/19 09:03:12;;;;;;;1.85;1.60;;;20.10;43.00;;;;;;6197053;23;20129;-86
2022/05/19 09:06:16;;;;;;;1.95;1.70;;;20.00;43.50;;;;;;6174684;23;20493;-86
2022/05/19 09:08:59;;;;;;;1.80;1.70;;;20.10;43.30;;;;;;6220907;23;20149;-86
2022/05/19 09:11:30;;;;;;;2.00;1.80;;;20.10;43.10;;;;;;6172804;23;20145;-86
2022/05/19 09:14:20;;;;;;;1.67;1.58;;;20.20;43.20;;;;;;6171096;23;20307;-86
2022/05/19 09:16:45;;;;;;;1.90;1.67;;;20.20;42.90;;;;;;6220012;23;20133;-86
2022/05/19 09:19:21;;;;;;;3.88;1.50;;;20.10;43.70;;;;;;6194890;23;20192;-86
2022/05/19 09:21:49;;;;;;;1.70;1.60;;;20.20;43.20;;;;;;6196332;23;20183;-86
2022/05/19 09:24:15;;;;;;;1.63;1.52;;;20.20;43.40;;;;;;6220213;23;20228;-86
2022/05/19 09:26:52;;;;;;;1.67;1.58;;;20.20;43.10;;;;;;6220690;23;20525;-86
2022/05/19 09:29:24;;;;;;;1.92;1.70;;;20.20;43.50;;;;;;6197000;23;20156;-86
2022/05/19 09:31:52;;;;;;;2.60;1.73;;;20.20;43.20;;;;;;6171268;23;20145;-87
2022/05/19 09:34:18;;;;;;;2.10;1.38;;;20.30;43.00;;;;;;6171228;23;20260;-86
2022/05/19 09:37:04;;;;;;;1.75;1.45;;;20.30;43.10;;;;;;6195309;23;20231;-85
2022/05/19 09:39:33;;;;;;;1.77;1.58;;;20.30;43.50;;;;;;6220276;23;20587;-86
2022/05/19 09:42:02;;;;;;;2.85;1.67;;;20.20;43.70;;;;;;6172691;23;20195;-86
2022/05/19 09:44:32;;;;;;;2.47;1.77;;;20.20;43.00;;;;;;6168660;23;20632;-86
2022/05/19 09:46:57;;;;;;;2.22;1.50;;;20.20;43.20;;;;;;6169366;23;20249;-86
2022/05/19 09:49:28;;;;;;;1.48;1.38;;;20.20;43.30;;;;;;6193762;23;20573;-86
2022/05/19 09:52:01;;;;;;;2.03;1.50;;;20.10;43.40;;;;;;6194268;23;20568;-86
2022/05/19 09:54:31;;;;;;;1.83;1.60;;;20.20;43.40;;;;;;6194075;23;20223;-86
2022/05/19 09:57:03;;;;;;;2.53;1.50;;;20.20;43.50;;;;;;6220244;23;20263;-86
2022/05/19 09:59:46;;;;;;;1.65;1.55;;;20.30;43.30;;;;;;6170517;23;20141;-86
2022/05/19 10:02:29;;;;;;;1.60;1.50;;;20.20;43.30;;;;;;6196752;23;20130;-86
2022/05/19 10:04:57;;;;;;;1.50;1.40;;;20.30;43.20;;;;;;6172772;23;20200;-86
2022/05/19 10:07:26;;;;;;;1.48;1.38;;;20.10;43.30;;;;;;6170478;23;20145;-87
2022/05/19 10:09:55;;;;;;;2.00;1.60;;;20.10;44.80;;;;;;6196085;23;20153;-86
2022/05/19 10:12:24;;;;;;;2.70;1.77;;;20.10;44.10;;;;;;6197366;23;20138;-89
2022/05/19 10:14:57;;;;;;;1.77;1.67;;;20.20;43.70;;;;;;6199069;23;20169;-86
2022/05/19 10:17:56;;;;;;;1.90;1.70;;;20.20;43.70;;;;;;6251884;23;20172;-86
2022/05/19 10:20:24;;;;;;;1.85;1.60;;;20.30;43.70;;;;;;6223411;23;20157;-86
2022/05/19 10:23:07;;;;;;;1.65;1.55;;;20.30;43.80;;;;;;6176208;23;20161;-86
2022/05/19 10:25:49;;;;;;;1.75;1.58;;;20.40;43.60;;;;;;6225936;23;20160;-86
2022/05/19 10:32:18;;;;;;;;;;;;;;;;;;;;;
2022/05/19 10:35:02;;;;;;;1.83;1.70;;;20.20;43.50;;;;;;6185496;23;20273;-86
2022/05/19 10:37:41;;;;;;;2.13;1.83;;;20.20;43.90;;;;;;6189534;23;20147;-87
2022/05/19 10:40:29;;;;;;;3.15;1.73;;;20.20;43.90;;;;;;6105283;23;20234;-86
2022/05/19 10:43:45;;;;;;;1.63;1.52;;;20.20;44.20;;;;;;6081725;23;20132;-86
2022/05/19 10:46:27;;;;;;;1.65;1.55;;;20.20;43.40;;;;;;6088829;23;20191;-88
2022/05/19 10:49:12;;;;;;;2.35;1.58;;;20.10;43.50;;;;;;6026044;23;20169;-87
2022/05/19 10:51:48;;;;;;;2.78;1.70;;;20.20;44.20;;;;;;6070974;23;20178;-87
2022/05/19 10:54:19;;;;;;;3.28;1.60;;;20.30;44.00;;;;;;6070424;23;20626;-87
2022/05/19 10:57:06;;;;;;;1.70;1.60;;;20.30;44.00;;;;;;6092731;23;20145;-86
2022/05/19 10:59:50;;;;;;;1.67;1.50;;;20.30;43.70;;;;;;6069495;23;20222;-87
2022/05/19 11:02:40;;;;;;;2.08;1.52;;;20.20;44.10;;;;;;6069838;23;20145;-87
2022/05/19 11:05:23;;;;;;;2.08;1.63;;;20.30;43.90;;;;;;6068280;23;20153;-87
2022/05/19 11:07:58;;;;;;;1.90;1.60;;;20.30;43.80;;;;;;6091442;23;20458;-87
2022/05/19 11:10:44;;;;;;;2.45;1.58;;;20.30;44.00;;;;;;6084510;23;20158;-87
2022/05/19 11:13:38;;;;;;;2.53;1.50;;;20.20;44.00;;;;;;6108937;23;20258;-87
2022/05/19 11:16:23;;;;;;;1.67;1.42;;;20.30;43.90;;;;;;6107071;23;20236;-87
2022/05/19 11:18:58;;;;;;;2.22;1.50;;;20.30;44.30;;;;;;6105465;23;20159;-87
2022/05/19 11:21:37;;;;;;;1.50;1.40;;;20.40;44.20;;;;;;6106569;23;20237;-87
2022/05/19 11:24:13;;;;;;;1.83;1.73;;;20.40;43.90;;;;;;6107150;23;20169;-87
2022/05/19 11:26:45;;;;;;;2.00;1.58;;;20.40;44.50;;;;;;6106469;23;20163;-88
2022/05/19 11:29:18;;;;;;;1.70;1.55;;;20.40;43.80;;;;;;6078700;23;20184;-87
2022/05/19 11:31:46;;;;;;;2.03;1.70;;;20.30;44.20;;;;;;6125729;23;20356;-86
2022/05/19 11:34:19;;;;;;;2.95;1.63;;;20.30;44.30;;;;;;6100282;23;20188;-86
2022/05/19 11:37:07;;;;;;;1.52;1.40;;;20.40;44.40;;;;;;6119579;23;20202;-87
2022/05/19 11:39:37;;;;;;;3.88;1.60;;;20.40;44.30;;;;;;6137387;23;20158;-87
2022/05/19 11:42:27;;;;;;;2.00;1.80;;;20.50;44.30;;;;;;6140086;23;20151;-88
2022/05/19 11:44:56;;;;;;;2.22;1.55;;;20.50;44.40;;;;;;6170177;23;20142;-88
2022/05/19 11:55:56;;;;;;;3.63;1.80;;;20.70;44.60;;;;;;6137463;23;20140;-89
2022/05/19 11:58:35;;;;;;;1.60;1.50;;;20.70;44.10;;;;;;6136171;23;20164;-88
2022/05/19 12:01:06;;;;;;;1.70;1.48;;;20.60;44.20;;;;;;6018886;23;20206;-86
2022/05/19 12:03:45;;;;;;;1.60;1.50;;;20.70;44.40;;;;;;5991094;23;20286;-86
2022/05/19 12:06:16;;;;;;;2.22;1.70;;;20.70;44.20;;;;;;5991443;23;20155;-86
2022/05/19 12:08:58;;;;;;;1.85;1.60;;;20.80;44.10;;;;;;5993017;23;20178;-86
2022/05/19 12:11:32;;;;;;;3.55;1.67;;;20.80;44.10;;;;;;5990676;23;20194;-86
2022/05/19 12:14:31;;;;;;;2.42;1.40;;;20.70;44.10;;;;;;5965996;23;20258;-87
2022/05/19 12:17:32;;;;;;;1.55;1.45;;;20.70;44.40;;;;;;5973221;23;20162;-85
2022/05/19 12:20:02;;;;;;;2.70;1.45;;;20.70;45.00;;;;;;5971098;23;20187;-86
2022/05/19 12:22:33;;;;;;;2.08;1.88;;;20.80;44.20;;;;;;5966034;23;20246;-86
2022/05/19 12:25:11;;;;;;;1.70;1.60;;;20.80;44.40;;;;;;6041755;23;20154;-86
2022/05/19 12:28:01;;;;;;;1.88;1.50;;;20.90;44.50;;;;;;6191661;23;20134;-86
2022/05/19 12:33:29;;;;;;;1.70;1.60;;;20.80;44.20;;;;;;6194595;23;20170;-87
2022/05/19 12:35:59;;;;;;;2.50;1.60;;;20.80;44.30;;;;;;6166182;23;20220;-86
2022/05/19 12:38:33;;;;;;;2.22;1.40;;;20.80;44.10;;;;;;6165698;23;20150;-86
2022/05/19 12:41:02;;;;;;;2.95;1.50;;;20.90;44.60;;;;;;6165776;23;20162;-86
2022/05/19 12:43:36;;;;;;;1.95;1.60;;;20.80;44.30;;;;;;6166667;23;20154;-86
2022/05/19 12:46:02;;;;;;;2.58;1.40;;;20.90;44.60;;;;;;6191880;23;20165;-86
2022/05/19 12:48:48;;;;;;;1.98;1.63;;;20.90;44.20;;;;;;6191346;23;20146;-87
2022/05/19 12:51:18;;;;;;;2.08;1.67;;;20.90;44.10;;;;;;6165829;23;20169;-86
2022/05/19 12:54:00;;;;;;;3.25;1.45;;;20.90;44.20;;;;;;6190527;23;20190;-87
2022/05/19 12:56:50;;;;;;;1.70;1.50;;;20.90;44.20;;;;;;6166887;23;20576;-86
2022/05/19 12:59:55;;;;;;;1.92;1.70;;;20.90;44.30;;;;;;6216328;23;20130;-86
2022/05/19 13:02:58;;;;;;;2.28;1.40;;;20.90;44.30;;;;;;6199733;23;20161;-86
2022/05/19 13:05:37;;;;;;;1.67;1.58;;;20.90;44.20;;;;;;6215740;23;20145;-85
2022/05/19 13:08:10;;;;;;;1.40;1.30;;;20.90;44.30;;;;;;6215631;23;20139;-86
2022/05/19 13:10:38;;;;;;;1.90;1.60;;;20.90;44.20;;;;;;6166726;23;20173;-85
2022/05/19 13:13:20;;;;;;;1.60;1.50;;;20.90;44.30;;;;;;6192172;23;20588;-86
2022/05/19 13:15:49;;;;;;;1.55;1.30;;;20.90;44.30;;;;;;6192144;23;20130;-85
2022/05/19 13:18:16;;;;;;;1.63;1.40;;;20.90;44.60;;;;;;6192313;23;20216;-86
2022/05/19 13:20:43;;;;;;;3.90;1.67;;;20.90;44.70;;;;;;6214855;23;20187;-85
2022/05/19 13:23:24;;;;;;;2.42;1.55;;;20.90;44.70;;;;;;6191500;23;20134;-86
2022/05/19 13:26:01;;;;;;;4.03;1.70;;;21.00;44.90;;;;;;6192017;23;20126;-85
2022/05/19 13:31:21;;;;;;;1.90;1.75;;;21.00;44.40;;;;;;6217855;23;20160;-86
2022/05/19 13:33:49;;;;;;;2.85;1.65;;;20.90;44.50;;;;;;6190903;23;20169;-86